BAW469 LEPA-EGLL
Flight info
| Callsign | BAW469 |
|---|---|
| Flight time | 2h 4m |
| Altitude | 38000 |
| Route | MEROS DCT LAPIT DCT CHELY DCT LUMAS DCT SOFFY DCT MRM DCT MTL DCT ETREK DCT MADOT DCT MOPEM DCT CACHI DCT AVLON DCT OKRIX DCT BRY DCT CLM DCT KOPOR DCT ABNUR DCT DIMAL DCT ALESO |
| Aircraft | A20N/M-SDE2E3FGHIRWXY/LB1 |
Departure
| Time | 2026-05-07 15:47 |
|---|---|
| Airport | Palma de Mallorca Airport (LEPA) |
Arrival
| Time | 2026-05-07 17:51 |
|---|---|
| Airport | London Heathrow Airport (EGLL) |
| Time | Latitude | Longitude | Altitude | Speed | Heading |
|---|---|---|---|---|---|
| 2026-05-07 15:17 | 39.55102 | 2.72912 | 62 ft | 0 kts | 157° |
| 2026-05-07 15:34 | 39.55103 | 2.72912 | 34 ft | 2 kts | 157° |
| 2026-05-07 15:34 | 39.55116 | 2.72905 | 34 ft | 2 kts | 157° |
| 2026-05-07 15:34 | 39.55130 | 2.72897 | 34 ft | 2 kts | 157° |
| 2026-05-07 15:35 | 39.55146 | 2.72887 | 32 ft | 3 kts | 145° |
| 2026-05-07 15:35 | 39.55158 | 2.72866 | 34 ft | 3 kts | 96° |
| 2026-05-07 15:35 | 39.55154 | 2.72840 | 30 ft | 3 kts | 67° |
| 2026-05-07 15:35 | 39.55150 | 2.72829 | 32 ft | 0 kts | 63° |
| 2026-05-07 15:38 | 39.55150 | 2.72830 | 34 ft | 1 kts | 63° |
| 2026-05-07 15:38 | 39.55164 | 2.72858 | 34 ft | 7 kts | 59° |
| 2026-05-07 15:39 | 39.55198 | 2.72931 | 34 ft | 12 kts | 58° |
| 2026-05-07 15:39 | 39.55251 | 2.73044 | 35 ft | 16 kts | 59° |
| 2026-05-07 15:39 | 39.55308 | 2.73166 | 35 ft | 15 kts | 57° |
| 2026-05-07 15:39 | 39.55364 | 2.73282 | 35 ft | 15 kts | 58° |
| 2026-05-07 15:40 | 39.55415 | 2.73392 | 36 ft | 14 kts | 59° |
| 2026-05-07 15:40 | 39.55463 | 2.73496 | 37 ft | 13 kts | 60° |
| 2026-05-07 15:40 | 39.55489 | 2.73596 | 37 ft | 7 kts | 113° |
| 2026-05-07 15:40 | 39.55452 | 2.73632 | 37 ft | 8 kts | 149° |
| 2026-05-07 15:41 | 39.55393 | 2.73679 | 37 ft | 11 kts | 149° |
| 2026-05-07 15:41 | 39.55329 | 2.73729 | 37 ft | 11 kts | 148° |
| 2026-05-07 15:41 | 39.55252 | 2.73792 | 36 ft | 15 kts | 148° |
| 2026-05-07 15:41 | 39.55155 | 2.73864 | 36 ft | 16 kts | 148° |
| 2026-05-07 15:42 | 39.55060 | 2.73941 | 36 ft | 16 kts | 148° |
| 2026-05-07 15:42 | 39.54964 | 2.74018 | 36 ft | 16 kts | 148° |
| 2026-05-07 15:42 | 39.54868 | 2.74094 | 36 ft | 16 kts | 148° |
| 2026-05-07 15:42 | 39.54774 | 2.74090 | 35 ft | 14 kts | 231° |
| 2026-05-07 15:43 | 39.54720 | 2.73982 | 37 ft | 15 kts | 238° |
| 2026-05-07 15:43 | 39.54660 | 2.73853 | 37 ft | 18 kts | 239° |
| 2026-05-07 15:43 | 39.54591 | 2.73706 | 38 ft | 19 kts | 238° |
| 2026-05-07 15:43 | 39.54525 | 2.73565 | 38 ft | 18 kts | 239° |
| 2026-05-07 15:44 | 39.54463 | 2.73433 | 39 ft | 17 kts | 239° |
| 2026-05-07 15:44 | 39.54405 | 2.73310 | 41 ft | 15 kts | 238° |
| 2026-05-07 15:44 | 39.54354 | 2.73208 | 41 ft | 9 kts | 236° |
| 2026-05-07 15:44 | 39.54327 | 2.73163 | 42 ft | 6 kts | 219° |
| 2026-05-07 15:45 | 39.54301 | 2.73168 | 42 ft | 3 kts | 135° |
| 2026-05-07 15:45 | 39.54292 | 2.73195 | 42 ft | 4 kts | 111° |
| 2026-05-07 15:45 | 39.54282 | 2.73253 | 41 ft | 9 kts | 94° |
| 2026-05-07 15:45 | 39.54275 | 2.73353 | 41 ft | 13 kts | 93° |
| 2026-05-07 15:46 | 39.54353 | 2.73656 | 37 ft | 29 kts | 60° |
| 2026-05-07 15:46 | 39.54565 | 2.74112 | 38 ft | 91 kts | 58° |
| 2026-05-07 15:46 | 39.55004 | 2.75041 | 32 ft | 148 kts | 58° |
| 2026-05-07 15:47 | 39.55590 | 2.76244 | 364 ft | 160 kts | 58° |
| 2026-05-07 15:47 | 39.56173 | 2.77480 | 888 ft | 162 kts | 61° |
| 2026-05-07 15:47 | 39.56724 | 2.78762 | 1467 ft | 164 kts | 62° |
| 2026-05-07 15:47 | 39.57261 | 2.80078 | 2052 ft | 168 kts | 63° |
| 2026-05-07 15:48 | 39.57837 | 2.81505 | 2585 ft | 189 kts | 63° |
| 2026-05-07 15:48 | 39.58491 | 2.83055 | 3167 ft | 205 kts | 60° |
| 2026-05-07 15:48 | 39.59313 | 2.84683 | 3642 ft | 224 kts | 58° |
| 2026-05-07 15:48 | 39.60183 | 2.86397 | 4318 ft | 231 kts | 59° |
| 2026-05-07 15:49 | 39.61036 | 2.88128 | 5247 ft | 226 kts | 59° |
| 2026-05-07 15:49 | 39.61870 | 2.89881 | 6087 ft | 228 kts | 61° |
| 2026-05-07 15:49 | 39.62652 | 2.91622 | 7047 ft | 225 kts | 62° |
| 2026-05-07 15:49 | 39.63428 | 2.93392 | 7866 ft | 227 kts | 62° |
| 2026-05-07 15:50 | 39.64231 | 2.95248 | 8369 ft | 246 kts | 62° |
| 2026-05-07 15:50 | 39.65096 | 2.97255 | 8913 ft | 260 kts | 63° |
| 2026-05-07 15:50 | 39.65995 | 2.99341 | 9665 ft | 268 kts | 63° |
| 2026-05-07 15:50 | 39.66915 | 3.01477 | 10454 ft | 274 kts | 62° |
| 2026-05-07 15:51 | 39.68006 | 3.03550 | 11278 ft | 281 kts | 55° |
| 2026-05-07 15:51 | 39.69219 | 3.05582 | 12143 ft | 288 kts | 53° |
| 2026-05-07 15:51 | 39.70479 | 3.07633 | 13058 ft | 293 kts | 54° |
| 2026-05-07 15:51 | 39.71773 | 3.09719 | 13932 ft | 298 kts | 53° |
| 2026-05-07 15:52 | 39.73067 | 3.11794 | 14701 ft | 301 kts | 53° |
| 2026-05-07 15:52 | 39.74397 | 3.13919 | 15383 ft | 305 kts | 53° |
| 2026-05-07 15:52 | 39.75746 | 3.16073 | 15826 ft | 309 kts | 52° |
| 2026-05-07 15:52 | 39.77116 | 3.18258 | 16374 ft | 315 kts | 52° |
| 2026-05-07 15:53 | 39.78523 | 3.20504 | 16877 ft | 327 kts | 52° |
| 2026-05-07 15:53 | 39.79999 | 3.22861 | 17175 ft | 345 kts | 52° |
| 2026-05-07 15:53 | 39.81040 | 3.24525 | 17369 ft | 357 kts | 52° |
| 2026-05-07 15:53 | 39.82644 | 3.27088 | 17722 ft | 372 kts | 52° |
| 2026-05-07 15:54 | 39.84297 | 3.29731 | 18262 ft | 380 kts | 52° |
| 2026-05-07 15:54 | 39.85958 | 3.32386 | 18791 ft | 386 kts | 52° |
| 2026-05-07 15:54 | 39.87663 | 3.35115 | 19347 ft | 391 kts | 52° |
| 2026-05-07 15:54 | 39.89389 | 3.37881 | 19905 ft | 396 kts | 52° |
| 2026-05-07 15:55 | 39.91134 | 3.40681 | 20463 ft | 401 kts | 53° |
| 2026-05-07 15:55 | 39.92900 | 3.43517 | 21037 ft | 405 kts | 53° |
| 2026-05-07 15:55 | 39.94682 | 3.46382 | 21588 ft | 409 kts | 53° |
| 2026-05-07 15:55 | 39.96483 | 3.49280 | 22144 ft | 414 kts | 53° |
| 2026-05-07 15:56 | 39.98304 | 3.52213 | 22668 ft | 420 kts | 53° |
| 2026-05-07 15:56 | 40.00160 | 3.55206 | 23019 ft | 429 kts | 53° |
| 2026-05-07 15:56 | 40.02046 | 3.58249 | 23501 ft | 434 kts | 53° |
| 2026-05-07 15:56 | 40.03954 | 3.61330 | 23915 ft | 438 kts | 53° |
| 2026-05-07 15:57 | 40.05879 | 3.64442 | 24320 ft | 443 kts | 53° |
| 2026-05-07 15:57 | 40.07827 | 3.67594 | 24729 ft | 447 kts | 53° |
| 2026-05-07 15:57 | 40.09786 | 3.70768 | 25124 ft | 451 kts | 53° |
| 2026-05-07 15:57 | 40.11762 | 3.73972 | 25510 ft | 455 kts | 53° |
| 2026-05-07 15:58 | 40.13751 | 3.77202 | 25895 ft | 459 kts | 53° |
| 2026-05-07 15:58 | 40.15759 | 3.80465 | 26274 ft | 462 kts | 53° |
| 2026-05-07 15:58 | 40.17785 | 3.83761 | 26633 ft | 466 kts | 53° |
| 2026-05-07 15:58 | 40.19822 | 3.87078 | 27018 ft | 469 kts | 53° |
| 2026-05-07 15:59 | 40.21872 | 3.90420 | 27409 ft | 472 kts | 53° |
| 2026-05-07 15:59 | 40.23931 | 3.93779 | 27858 ft | 473 kts | 53° |
| 2026-05-07 15:59 | 40.25989 | 3.97140 | 28339 ft | 473 kts | 53° |
| 2026-05-07 15:59 | 40.28020 | 4.00462 | 28797 ft | 473 kts | 53° |
| 2026-05-07 16:00 | 40.30080 | 4.03835 | 29237 ft | 474 kts | 53° |
| 2026-05-07 16:00 | 40.32138 | 4.07208 | 29665 ft | 475 kts | 53° |
| 2026-05-07 16:00 | 40.34202 | 4.10595 | 30078 ft | 475 kts | 53° |
| 2026-05-07 16:00 | 40.36263 | 4.13981 | 30444 ft | 475 kts | 53° |
| 2026-05-07 16:01 | 40.38326 | 4.17373 | 30806 ft | 475 kts | 53° |
| 2026-05-07 16:01 | 40.40385 | 4.20763 | 31136 ft | 476 kts | 53° |
| 2026-05-07 16:01 | 40.42458 | 4.24181 | 31289 ft | 481 kts | 53° |
| 2026-05-07 16:01 | 40.44559 | 4.27647 | 31413 ft | 487 kts | 53° |
| 2026-05-07 16:02 | 40.46738 | 4.31104 | 31534 ft | 494 kts | 48° |
| 2026-05-07 16:02 | 40.49290 | 4.34166 | 31655 ft | 500 kts | 36° |
| 2026-05-07 16:02 | 40.52290 | 4.36494 | 31823 ft | 502 kts | 22° |
| 2026-05-07 16:02 | 40.55535 | 4.37964 | 32093 ft | 499 kts | 12° |
| 2026-05-07 16:03 | 40.58919 | 4.39010 | 32427 ft | 498 kts | 8° |
| 2026-05-07 16:03 | 40.62318 | 4.39859 | 32764 ft | 497 kts | 6° |
| 2026-05-07 16:03 | 40.65727 | 4.40622 | 33102 ft | 496 kts | 5° |
| 2026-05-07 16:03 | 40.69137 | 4.41365 | 33429 ft | 496 kts | 5° |
| 2026-05-07 16:04 | 40.72541 | 4.42117 | 33750 ft | 496 kts | 6° |
| 2026-05-07 16:04 | 40.75937 | 4.42889 | 34045 ft | 496 kts | 6° |
| 2026-05-07 16:04 | 40.79334 | 4.43682 | 34323 ft | 495 kts | 6° |
| 2026-05-07 16:04 | 40.82722 | 4.44488 | 34619 ft | 494 kts | 6° |
| 2026-05-07 16:05 | 40.86108 | 4.45302 | 34822 ft | 495 kts | 6° |
| 2026-05-07 16:05 | 40.89498 | 4.46121 | 35044 ft | 495 kts | 6° |
| 2026-05-07 16:05 | 40.92886 | 4.46943 | 35308 ft | 495 kts | 6° |
| 2026-05-07 16:05 | 40.96267 | 4.47765 | 35572 ft | 494 kts | 6° |
| 2026-05-07 16:06 | 40.99605 | 4.48577 | 35814 ft | 493 kts | 6° |
| 2026-05-07 16:06 | 41.02976 | 4.49398 | 36058 ft | 493 kts | 6° |
| 2026-05-07 16:06 | 41.06350 | 4.50219 | 36280 ft | 493 kts | 6° |
| 2026-05-07 16:06 | 41.09728 | 4.51040 | 36454 ft | 494 kts | 6° |
| 2026-05-07 16:07 | 41.13111 | 4.51863 | 36692 ft | 493 kts | 6° |
| 2026-05-07 16:07 | 41.16475 | 4.52683 | 36923 ft | 492 kts | 6° |
| 2026-05-07 16:07 | 41.19840 | 4.53504 | 37170 ft | 490 kts | 6° |
| 2026-05-07 16:07 | 41.23193 | 4.54324 | 37398 ft | 489 kts | 6° |
| 2026-05-07 16:08 | 41.26546 | 4.55143 | 37625 ft | 489 kts | 6° |
| 2026-05-07 16:08 | 41.29887 | 4.55960 | 37826 ft | 488 kts | 6° |
| 2026-05-07 16:08 | 41.33233 | 4.56779 | 37960 ft | 489 kts | 6° |
| 2026-05-07 16:09 | 41.39935 | 4.58422 | 37962 ft | 489 kts | 6° |
| 2026-05-07 16:09 | 41.46582 | 4.60056 | 37964 ft | 488 kts | 6° |
| 2026-05-07 16:10 | 41.53259 | 4.61701 | 37964 ft | 488 kts | 6° |
| 2026-05-07 16:10 | 41.59933 | 4.63349 | 37965 ft | 488 kts | 6° |
| 2026-05-07 16:11 | 41.66624 | 4.65004 | 37962 ft | 488 kts | 6° |
| 2026-05-07 16:11 | 41.73291 | 4.66774 | 37960 ft | 490 kts | 11° |
| 2026-05-07 16:12 | 41.79834 | 4.69187 | 37968 ft | 491 kts | 12° |
| 2026-05-07 16:12 | 41.86405 | 4.71753 | 37967 ft | 492 kts | 12° |
| 2026-05-07 16:13 | 41.92966 | 4.74350 | 37962 ft | 491 kts | 12° |
| 2026-05-07 16:13 | 41.99525 | 4.76944 | 37961 ft | 491 kts | 12° |
| 2026-05-07 16:14 | 42.06087 | 4.79536 | 37968 ft | 491 kts | 12° |
| 2026-05-07 16:14 | 42.12649 | 4.82130 | 37966 ft | 491 kts | 12° |
| 2026-05-07 16:15 | 42.19192 | 4.84724 | 37968 ft | 489 kts | 12° |
| 2026-05-07 16:15 | 42.25730 | 4.87320 | 37969 ft | 489 kts | 12° |
| 2026-05-07 16:16 | 42.32224 | 4.89904 | 37973 ft | 489 kts | 12° |
| 2026-05-07 16:16 | 42.38743 | 4.92504 | 37966 ft | 488 kts | 12° |
| 2026-05-07 16:17 | 42.45263 | 4.95110 | 37965 ft | 488 kts | 12° |
| 2026-05-07 16:17 | 42.51778 | 4.97720 | 37984 ft | 488 kts | 12° |
| 2026-05-07 16:18 | 42.58287 | 5.00333 | 37967 ft | 487 kts | 12° |
| 2026-05-07 16:18 | 42.64793 | 5.02951 | 37963 ft | 487 kts | 12° |
| 2026-05-07 16:19 | 42.71293 | 5.05572 | 37965 ft | 487 kts | 12° |
| 2026-05-07 16:19 | 42.77754 | 5.08182 | 37966 ft | 487 kts | 12° |
| 2026-05-07 16:20 | 42.84251 | 5.10814 | 37966 ft | 487 kts | 12° |
| 2026-05-07 16:20 | 42.90752 | 5.13452 | 37985 ft | 487 kts | 12° |
| 2026-05-07 16:21 | 42.97242 | 5.16093 | 37961 ft | 486 kts | 12° |
| 2026-05-07 16:21 | 43.03717 | 5.18731 | 37960 ft | 486 kts | 12° |
| 2026-05-07 16:22 | 43.10193 | 5.21368 | 37959 ft | 486 kts | 12° |
| 2026-05-07 16:22 | 43.16626 | 5.23990 | 37960 ft | 485 kts | 12° |
| 2026-05-07 16:23 | 43.23131 | 5.26649 | 37961 ft | 485 kts | 12° |
| 2026-05-07 16:23 | 43.29547 | 5.29277 | 37972 ft | 485 kts | 12° |
| 2026-05-07 16:24 | 43.36071 | 5.31288 | 37959 ft | 474 kts | 358° |
| 2026-05-07 16:24 | 43.39333 | 5.31232 | 37965 ft | 464 kts | 347° |
| 2026-05-07 16:24 | 43.42464 | 5.30393 | 37976 ft | 457 kts | 339° |
| 2026-05-07 16:25 | 43.48569 | 5.27876 | 37969 ft | 459 kts | 335° |
| 2026-05-07 16:25 | 43.54620 | 5.25051 | 37956 ft | 458 kts | 335° |
| 2026-05-07 16:26 | 43.60656 | 5.22217 | 37974 ft | 458 kts | 335° |
| 2026-05-07 16:26 | 43.66669 | 5.19433 | 37969 ft | 458 kts | 335° |
| 2026-05-07 16:27 | 43.72717 | 5.16651 | 37973 ft | 458 kts | 335° |
| 2026-05-07 16:27 | 43.78766 | 5.13867 | 37957 ft | 457 kts | 335° |
| 2026-05-07 16:28 | 43.84814 | 5.11077 | 37941 ft | 457 kts | 335° |
| 2026-05-07 16:28 | 43.90850 | 5.08284 | 37938 ft | 457 kts | 335° |
| 2026-05-07 16:29 | 43.96842 | 5.05506 | 37938 ft | 457 kts | 335° |
| 2026-05-07 16:29 | 44.02867 | 5.02706 | 37938 ft | 456 kts | 335° |
| 2026-05-07 16:30 | 44.08899 | 4.99898 | 37938 ft | 456 kts | 335° |
| 2026-05-07 16:30 | 44.14922 | 4.97087 | 37939 ft | 456 kts | 336° |
| 2026-05-07 16:31 | 44.20946 | 4.94270 | 37944 ft | 456 kts | 336° |
| 2026-05-07 16:31 | 44.26971 | 4.91446 | 37938 ft | 457 kts | 336° |
| 2026-05-07 16:32 | 44.33002 | 4.88614 | 37941 ft | 457 kts | 336° |
| 2026-05-07 16:32 | 44.38992 | 4.85795 | 37938 ft | 457 kts | 336° |
| 2026-05-07 16:33 | 44.45021 | 4.82951 | 37942 ft | 457 kts | 336° |
| 2026-05-07 16:33 | 44.51050 | 4.80101 | 37940 ft | 457 kts | 336° |
| 2026-05-07 16:34 | 44.57204 | 4.77724 | 37950 ft | 462 kts | 344° |
| 2026-05-07 16:34 | 44.63542 | 4.76164 | 37951 ft | 463 kts | 346° |
| 2026-05-07 16:35 | 44.69916 | 4.74760 | 37955 ft | 463 kts | 346° |
| 2026-05-07 16:35 | 44.76294 | 4.73374 | 37959 ft | 463 kts | 346° |
| 2026-05-07 16:36 | 44.82662 | 4.71971 | 37961 ft | 463 kts | 346° |
| 2026-05-07 16:36 | 44.88985 | 4.70564 | 37964 ft | 463 kts | 346° |
| 2026-05-07 16:37 | 44.95350 | 4.69140 | 37944 ft | 461 kts | 346° |
| 2026-05-07 16:37 | 45.01690 | 4.67720 | 37960 ft | 460 kts | 346° |
| 2026-05-07 16:38 | 45.08022 | 4.66298 | 37962 ft | 460 kts | 346° |
| 2026-05-07 16:38 | 45.14348 | 4.64874 | 37966 ft | 460 kts | 346° |
| 2026-05-07 16:39 | 45.20672 | 4.63445 | 37970 ft | 460 kts | 346° |
| 2026-05-07 16:39 | 45.26993 | 4.62004 | 37973 ft | 460 kts | 346° |
| 2026-05-07 16:40 | 45.33316 | 4.60557 | 37977 ft | 460 kts | 346° |
| 2026-05-07 16:40 | 45.39636 | 4.59107 | 37989 ft | 460 kts | 346° |
| 2026-05-07 16:41 | 45.45911 | 4.57666 | 37991 ft | 460 kts | 347° |
| 2026-05-07 16:41 | 45.52232 | 4.56211 | 37990 ft | 459 kts | 346° |
| 2026-05-07 16:42 | 45.57481 | 4.55001 | 37991 ft | 459 kts | 346° |
| 2026-05-07 16:42 | 45.63793 | 4.53543 | 37989 ft | 459 kts | 346° |
| 2026-05-07 16:43 | 45.70099 | 4.52081 | 37997 ft | 459 kts | 346° |
| 2026-05-07 16:43 | 45.76398 | 4.50618 | 37986 ft | 458 kts | 346° |
| 2026-05-07 16:44 | 45.82691 | 4.49154 | 37985 ft | 458 kts | 346° |
| 2026-05-07 16:44 | 45.88994 | 4.47683 | 38004 ft | 458 kts | 346° |
| 2026-05-07 16:45 | 45.95274 | 4.46216 | 37975 ft | 456 kts | 346° |
| 2026-05-07 16:45 | 46.01506 | 4.44756 | 37989 ft | 456 kts | 346° |
| 2026-05-07 16:46 | 46.07774 | 4.43283 | 37987 ft | 456 kts | 346° |
| 2026-05-07 16:46 | 46.14038 | 4.41808 | 37975 ft | 455 kts | 346° |
| 2026-05-07 16:47 | 46.20299 | 4.40331 | 37992 ft | 455 kts | 346° |
| 2026-05-07 16:47 | 46.26549 | 4.38853 | 37985 ft | 455 kts | 346° |
| 2026-05-07 16:48 | 46.32747 | 4.37054 | 37988 ft | 453 kts | 342° |
| 2026-05-07 16:48 | 46.38855 | 4.34869 | 37987 ft | 452 kts | 341° |
| 2026-05-07 16:49 | 46.44955 | 4.32646 | 37994 ft | 452 kts | 342° |
| 2026-05-07 16:49 | 46.51029 | 4.30475 | 37992 ft | 452 kts | 342° |
| 2026-05-07 16:50 | 46.57145 | 4.28315 | 37989 ft | 452 kts | 342° |
| 2026-05-07 16:50 | 46.63263 | 4.26156 | 37990 ft | 452 kts | 342° |
| 2026-05-07 16:51 | 46.69380 | 4.23992 | 37989 ft | 452 kts | 342° |
| 2026-05-07 16:51 | 46.75492 | 4.21823 | 37990 ft | 452 kts | 342° |
| 2026-05-07 16:52 | 46.81606 | 4.19647 | 37992 ft | 452 kts | 342° |
| 2026-05-07 16:52 | 46.87719 | 4.17467 | 37991 ft | 452 kts | 342° |
| 2026-05-07 16:53 | 46.93832 | 4.15281 | 37997 ft | 452 kts | 342° |
| 2026-05-07 16:53 | 46.99938 | 4.13092 | 37997 ft | 452 kts | 342° |
| 2026-05-07 16:54 | 47.05995 | 4.10826 | 37994 ft | 450 kts | 337° |
| 2026-05-07 16:54 | 47.11848 | 4.07640 | 38002 ft | 448 kts | 335° |
| 2026-05-07 16:55 | 47.17638 | 4.04251 | 37996 ft | 448 kts | 334° |
| 2026-05-07 16:55 | 47.23418 | 4.00805 | 37999 ft | 448 kts | 334° |
| 2026-05-07 16:56 | 47.29204 | 3.97355 | 37998 ft | 448 kts | 334° |
| 2026-05-07 16:56 | 47.37843 | 3.92209 | 38001 ft | 448 kts | 334° |
| 2026-05-07 16:57 | 47.43634 | 3.88754 | 38006 ft | 448 kts | 334° |
| 2026-05-07 16:57 | 47.49415 | 3.85296 | 38007 ft | 448 kts | 334° |
| 2026-05-07 16:58 | 47.55194 | 3.81830 | 38004 ft | 448 kts | 334° |
| 2026-05-07 16:58 | 47.60974 | 3.78357 | 38012 ft | 448 kts | 334° |
| 2026-05-07 16:59 | 47.66717 | 3.74899 | 38004 ft | 448 kts | 334° |
| 2026-05-07 16:59 | 47.72491 | 3.71413 | 38009 ft | 448 kts | 334° |
| 2026-05-07 17:00 | 47.78271 | 3.67916 | 38010 ft | 449 kts | 334° |
| 2026-05-07 17:00 | 47.84052 | 3.64407 | 38020 ft | 449 kts | 334° |
| 2026-05-07 17:01 | 47.89846 | 3.60881 | 38020 ft | 449 kts | 334° |
| 2026-05-07 17:01 | 47.95622 | 3.57360 | 38010 ft | 449 kts | 334° |
| 2026-05-07 17:02 | 48.01403 | 3.53820 | 38013 ft | 449 kts | 334° |
| 2026-05-07 17:02 | 48.07177 | 3.50269 | 38013 ft | 449 kts | 334° |
| 2026-05-07 17:03 | 48.12951 | 3.46709 | 38021 ft | 449 kts | 334° |
| 2026-05-07 17:03 | 48.18690 | 3.43161 | 38022 ft | 448 kts | 334° |
| 2026-05-07 17:04 | 48.24463 | 3.39586 | 38021 ft | 449 kts | 334° |
| 2026-05-07 17:04 | 48.30240 | 3.36000 | 38027 ft | 450 kts | 334° |
| 2026-05-07 17:05 | 48.36031 | 3.32396 | 38028 ft | 450 kts | 334° |
| 2026-05-07 17:05 | 48.41808 | 3.28786 | 38032 ft | 450 kts | 334° |
| 2026-05-07 17:06 | 48.47535 | 3.25147 | 38034 ft | 450 kts | 334° |
| 2026-05-07 17:06 | 48.53296 | 3.21460 | 38035 ft | 450 kts | 334° |
| 2026-05-07 17:07 | 48.59053 | 3.17769 | 38034 ft | 450 kts | 334° |
| 2026-05-07 17:07 | 48.64816 | 3.14070 | 38034 ft | 450 kts | 334° |
| 2026-05-07 17:08 | 48.70579 | 3.10363 | 38040 ft | 450 kts | 334° |
| 2026-05-07 17:08 | 48.76336 | 3.06650 | 38042 ft | 450 kts | 334° |
| 2026-05-07 17:09 | 48.82102 | 3.02922 | 38034 ft | 450 kts | 334° |
| 2026-05-07 17:09 | 48.87650 | 2.98592 | 38037 ft | 448 kts | 328° |
| 2026-05-07 17:10 | 48.93073 | 2.93924 | 38039 ft | 448 kts | 327° |
| 2026-05-07 17:10 | 48.98467 | 2.89184 | 38041 ft | 448 kts | 327° |
| 2026-05-07 17:11 | 49.03864 | 2.84428 | 38037 ft | 448 kts | 327° |
| 2026-05-07 17:11 | 49.09228 | 2.79700 | 38045 ft | 448 kts | 327° |
| 2026-05-07 17:12 | 49.14620 | 2.74942 | 38044 ft | 448 kts | 327° |
| 2026-05-07 17:12 | 49.20014 | 2.70171 | 38044 ft | 448 kts | 327° |
| 2026-05-07 17:13 | 49.25407 | 2.65390 | 38045 ft | 448 kts | 327° |
| 2026-05-07 17:13 | 49.30797 | 2.60598 | 38038 ft | 448 kts | 327° |
| 2026-05-07 17:14 | 49.36195 | 2.55787 | 38038 ft | 448 kts | 327° |
| 2026-05-07 17:14 | 49.41592 | 2.50964 | 38042 ft | 448 kts | 327° |
| 2026-05-07 17:15 | 49.46946 | 2.46166 | 38042 ft | 448 kts | 327° |
| 2026-05-07 17:15 | 49.52341 | 2.41350 | 38045 ft | 449 kts | 327° |
| 2026-05-07 17:16 | 49.57813 | 2.36683 | 38043 ft | 449 kts | 328° |
| 2026-05-07 17:16 | 49.63316 | 2.32061 | 38043 ft | 449 kts | 328° |
| 2026-05-07 17:17 | 49.68761 | 2.27465 | 38042 ft | 449 kts | 328° |
| 2026-05-07 17:17 | 49.74238 | 2.22810 | 38042 ft | 449 kts | 328° |
| 2026-05-07 17:18 | 49.79715 | 2.18136 | 38039 ft | 449 kts | 328° |
| 2026-05-07 17:18 | 49.85195 | 2.13447 | 38039 ft | 449 kts | 328° |
| 2026-05-07 17:19 | 49.90665 | 2.08753 | 38040 ft | 449 kts | 328° |
| 2026-05-07 17:19 | 49.96145 | 2.04041 | 38049 ft | 449 kts | 328° |
| 2026-05-07 17:20 | 50.01613 | 1.99326 | 38039 ft | 449 kts | 328° |
| 2026-05-07 17:20 | 50.07077 | 1.94602 | 38038 ft | 449 kts | 328° |
| 2026-05-07 17:21 | 50.12541 | 1.89867 | 38039 ft | 449 kts | 328° |
| 2026-05-07 17:21 | 50.17726 | 1.84628 | 38019 ft | 445 kts | 316° |
| 2026-05-07 17:22 | 50.20044 | 1.81432 | 37782 ft | 443 kts | 315° |
| 2026-05-07 17:22 | 50.22300 | 1.78138 | 37514 ft | 443 kts | 313° |
| 2026-05-07 17:22 | 50.24514 | 1.74792 | 37246 ft | 443 kts | 313° |
| 2026-05-07 17:22 | 50.26711 | 1.71417 | 36984 ft | 442 kts | 313° |
| 2026-05-07 17:23 | 50.28896 | 1.68041 | 36726 ft | 442 kts | 313° |
| 2026-05-07 17:23 | 50.31080 | 1.64667 | 36465 ft | 441 kts | 313° |
| 2026-05-07 17:23 | 50.33268 | 1.61292 | 36216 ft | 441 kts | 313° |
| 2026-05-07 17:23 | 50.35452 | 1.57929 | 35966 ft | 440 kts | 313° |
| 2026-05-07 17:24 | 50.37606 | 1.54616 | 35724 ft | 440 kts | 313° |
| 2026-05-07 17:24 | 50.39782 | 1.51267 | 35239 ft | 438 kts | 313° |
| 2026-05-07 17:24 | 50.41962 | 1.47910 | 34557 ft | 440 kts | 313° |
| 2026-05-07 17:24 | 50.44141 | 1.44550 | 33769 ft | 438 kts | 313° |
| 2026-05-07 17:25 | 50.46305 | 1.41212 | 32970 ft | 435 kts | 313° |
| 2026-05-07 17:25 | 50.48453 | 1.37891 | 32232 ft | 431 kts | 312° |
| 2026-05-07 17:25 | 50.50532 | 1.34513 | 31467 ft | 428 kts | 310° |
| 2026-05-07 17:25 | 50.52553 | 1.31100 | 30720 ft | 426 kts | 310° |
| 2026-05-07 17:26 | 50.54558 | 1.27687 | 29911 ft | 424 kts | 310° |
| 2026-05-07 17:26 | 50.56556 | 1.24283 | 29018 ft | 422 kts | 310° |
| 2026-05-07 17:26 | 50.58590 | 1.20936 | 28186 ft | 421 kts | 312° |
| 2026-05-07 17:26 | 50.60659 | 1.17656 | 27401 ft | 422 kts | 312° |
| 2026-05-07 17:27 | 50.62730 | 1.14393 | 26891 ft | 418 kts | 313° |
| 2026-05-07 17:27 | 50.64755 | 1.11203 | 26534 ft | 404 kts | 312° |
| 2026-05-07 17:27 | 50.66714 | 1.08110 | 26003 ft | 396 kts | 312° |
| 2026-05-07 17:27 | 50.68649 | 1.05047 | 25291 ft | 393 kts | 312° |
| 2026-05-07 17:28 | 50.70547 | 1.02035 | 24546 ft | 392 kts | 312° |
| 2026-05-07 17:28 | 50.72457 | 0.99001 | 23939 ft | 388 kts | 312° |
| 2026-05-07 17:28 | 50.74345 | 0.95999 | 23473 ft | 380 kts | 312° |
| 2026-05-07 17:28 | 50.76175 | 0.93088 | 23157 ft | 366 kts | 312° |
| 2026-05-07 17:29 | 50.77943 | 0.90273 | 22718 ft | 356 kts | 312° |
| 2026-05-07 17:29 | 50.79691 | 0.87481 | 21853 ft | 359 kts | 312° |
| 2026-05-07 17:29 | 50.81432 | 0.84698 | 21458 ft | 349 kts | 312° |
| 2026-05-07 17:29 | 50.83111 | 0.82016 | 21117 ft | 339 kts | 312° |
| 2026-05-07 17:30 | 50.84757 | 0.79380 | 20626 ft | 333 kts | 312° |
| 2026-05-07 17:30 | 50.85834 | 0.77653 | 20261 ft | 332 kts | 312° |
| 2026-05-07 17:30 | 50.87449 | 0.75062 | 19750 ft | 328 kts | 312° |
| 2026-05-07 17:30 | 50.89039 | 0.72508 | 19465 ft | 325 kts | 312° |
| 2026-05-07 17:31 | 50.90629 | 0.69951 | 19199 ft | 322 kts | 312° |
| 2026-05-07 17:31 | 50.92180 | 0.67457 | 18895 ft | 312 kts | 312° |
| 2026-05-07 17:31 | 50.93683 | 0.65039 | 18565 ft | 304 kts | 312° |
| 2026-05-07 17:31 | 50.95180 | 0.62624 | 17790 ft | 312 kts | 312° |
| 2026-05-07 17:32 | 50.96733 | 0.60111 | 16908 ft | 325 kts | 312° |
| 2026-05-07 17:32 | 50.98293 | 0.57468 | 16171 ft | 330 kts | 307° |
| 2026-05-07 17:32 | 50.99564 | 0.54410 | 15453 ft | 335 kts | 297° |
| 2026-05-07 17:32 | 51.00681 | 0.51137 | 14750 ft | 340 kts | 296° |
| 2026-05-07 17:33 | 51.01779 | 0.47842 | 14245 ft | 341 kts | 296° |
| 2026-05-07 17:33 | 51.02894 | 0.44495 | 14362 ft | 347 kts | 296° |
| 2026-05-07 17:33 | 51.04026 | 0.41108 | 14733 ft | 340 kts | 296° |
| 2026-05-07 17:33 | 51.05110 | 0.37873 | 14846 ft | 326 kts | 296° |
| 2026-05-07 17:34 | 51.06168 | 0.34722 | 14774 ft | 320 kts | 296° |
| 2026-05-07 17:34 | 51.07208 | 0.31620 | 14475 ft | 315 kts | 296° |
| 2026-05-07 17:34 | 51.08230 | 0.28573 | 14173 ft | 310 kts | 296° |
| 2026-05-07 17:34 | 51.09240 | 0.25566 | 13812 ft | 307 kts | 296° |
| 2026-05-07 17:35 | 51.10247 | 0.22571 | 13407 ft | 306 kts | 296° |
| 2026-05-07 17:35 | 51.11246 | 0.19599 | 12995 ft | 303 kts | 296° |
| 2026-05-07 17:35 | 51.12238 | 0.16650 | 12609 ft | 301 kts | 296° |
| 2026-05-07 17:35 | 51.13222 | 0.13725 | 12227 ft | 299 kts | 296° |
| 2026-05-07 17:36 | 51.14201 | 0.10815 | 11839 ft | 297 kts | 296° |
| 2026-05-07 17:36 | 51.15173 | 0.07927 | 11466 ft | 295 kts | 296° |
| 2026-05-07 17:36 | 51.16139 | 0.05062 | 11100 ft | 293 kts | 296° |
| 2026-05-07 17:36 | 51.17098 | 0.02218 | 10975 ft | 291 kts | 296° |
| 2026-05-07 17:37 | 51.18056 | -0.00630 | 11050 ft | 292 kts | 296° |
| 2026-05-07 17:37 | 51.19010 | -0.03477 | 11048 ft | 291 kts | 296° |
| 2026-05-07 17:37 | 51.19960 | -0.06320 | 11047 ft | 290 kts | 296° |
| 2026-05-07 17:37 | 51.20896 | -0.09124 | 11048 ft | 290 kts | 296° |
| 2026-05-07 17:38 | 51.21843 | -0.11961 | 10984 ft | 289 kts | 296° |
| 2026-05-07 17:38 | 51.22789 | -0.14797 | 10608 ft | 288 kts | 296° |
| 2026-05-07 17:38 | 51.23724 | -0.17610 | 10247 ft | 286 kts | 296° |
| 2026-05-07 17:38 | 51.24650 | -0.20402 | 9869 ft | 284 kts | 296° |
| 2026-05-07 17:39 | 51.25568 | -0.23181 | 9449 ft | 282 kts | 296° |
| 2026-05-07 17:39 | 51.26475 | -0.25953 | 9026 ft | 281 kts | 296° |
| 2026-05-07 17:39 | 51.27369 | -0.28715 | 8598 ft | 280 kts | 296° |
| 2026-05-07 17:39 | 51.28254 | -0.31481 | 8197 ft | 278 kts | 296° |
| 2026-05-07 17:40 | 51.29050 | -0.34271 | 8051 ft | 275 kts | 285° |
| 2026-05-07 17:40 | 51.29580 | -0.37196 | 7898 ft | 274 kts | 285° |
| 2026-05-07 17:40 | 51.30123 | -0.40094 | 7606 ft | 268 kts | 286° |
| 2026-05-07 17:40 | 51.30655 | -0.42921 | 7298 ft | 264 kts | 286° |
| 2026-05-07 17:41 | 51.31173 | -0.45725 | 7073 ft | 261 kts | 286° |
| 2026-05-07 17:41 | 51.31679 | -0.48515 | 7047 ft | 262 kts | 286° |
| 2026-05-07 17:41 | 51.32186 | -0.51323 | 7044 ft | 262 kts | 285° |
| 2026-05-07 17:41 | 51.32674 | -0.54034 | 7033 ft | 246 kts | 285° |
| 2026-05-07 17:42 | 51.33133 | -0.56578 | 7038 ft | 232 kts | 285° |
| 2026-05-07 17:42 | 51.33576 | -0.59029 | 7075 ft | 228 kts | 285° |
| 2026-05-07 17:42 | 51.34019 | -0.61481 | 7055 ft | 231 kts | 285° |
| 2026-05-07 17:42 | 51.34461 | -0.63927 | 7047 ft | 232 kts | 285° |
| 2026-05-07 17:43 | 51.34909 | -0.66410 | 7040 ft | 232 kts | 285° |
| 2026-05-07 17:43 | 51.35360 | -0.68899 | 7044 ft | 233 kts | 285° |
| 2026-05-07 17:43 | 51.35812 | -0.71382 | 7047 ft | 233 kts | 285° |
| 2026-05-07 17:43 | 51.36263 | -0.73867 | 7045 ft | 233 kts | 285° |
| 2026-05-07 17:44 | 51.36714 | -0.76358 | 7047 ft | 233 kts | 285° |
| 2026-05-07 17:44 | 51.37161 | -0.78843 | 7036 ft | 232 kts | 285° |
| 2026-05-07 17:44 | 51.37608 | -0.81330 | 7029 ft | 232 kts | 285° |
| 2026-05-07 17:44 | 51.38054 | -0.83811 | 6881 ft | 232 kts | 285° |
| 2026-05-07 17:45 | 51.38550 | -0.86272 | 6428 ft | 232 kts | 296° |
| 2026-05-07 17:45 | 51.39614 | -0.88166 | 5940 ft | 230 kts | 329° |
| 2026-05-07 17:45 | 51.41122 | -0.88870 | 5495 ft | 227 kts | 358° |
| 2026-05-07 17:45 | 51.42689 | -0.88758 | 5063 ft | 224 kts | 12° |
| 2026-05-07 17:46 | 51.44057 | -0.87643 | 4562 ft | 224 kts | 43° |
| 2026-05-07 17:46 | 51.45060 | -0.85746 | 3995 ft | 228 kts | 54° |
| 2026-05-07 17:46 | 51.45982 | -0.83664 | 3544 ft | 228 kts | 56° |
| 2026-05-07 17:46 | 51.46879 | -0.81600 | 3184 ft | 223 kts | 57° |
| 2026-05-07 17:47 | 51.47503 | -0.79367 | 3001 ft | 220 kts | 76° |
| 2026-05-07 17:47 | 51.47685 | -0.76942 | 2986 ft | 219 kts | 89° |
| 2026-05-07 17:47 | 51.47673 | -0.74495 | 2987 ft | 219 kts | 91° |
| 2026-05-07 17:47 | 51.47669 | -0.72061 | 2981 ft | 218 kts | 91° |
| 2026-05-07 17:48 | 51.47670 | -0.69629 | 2772 ft | 218 kts | 90° |
| 2026-05-07 17:48 | 51.47680 | -0.67202 | 2457 ft | 218 kts | 91° |
| 2026-05-07 17:48 | 51.47691 | -0.64796 | 2144 ft | 209 kts | 91° |
| 2026-05-07 17:48 | 51.47698 | -0.62552 | 1842 ft | 194 kts | 91° |
| 2026-05-07 17:49 | 51.47705 | -0.60469 | 1606 ft | 184 kts | 91° |
| 2026-05-07 17:49 | 51.47712 | -0.58472 | 1355 ft | 176 kts | 91° |
| 2026-05-07 17:49 | 51.47719 | -0.56526 | 1118 ft | 174 kts | 90° |
| 2026-05-07 17:49 | 51.47727 | -0.54665 | 889 ft | 159 kts | 92° |
| 2026-05-07 17:50 | 51.47734 | -0.52954 | 634 ft | 148 kts | 91° |
| 2026-05-07 17:50 | 51.47742 | -0.51352 | 456 ft | 142 kts | 93° |
| 2026-05-07 17:50 | 51.47744 | -0.49774 | 281 ft | 142 kts | 94° |
| 2026-05-07 17:50 | 51.47752 | -0.48185 | 117 ft | 142 kts | 92° |
| 2026-05-07 17:51 | 51.47755 | -0.46728 | 99 ft | 112 kts | 90° |
| 2026-05-07 17:51 | 51.47755 | -0.45942 | 93 ft | 54 kts | 91° |
| 2026-05-07 17:51 | 51.47757 | -0.45595 | 93 ft | 17 kts | 89° |
| 2026-05-07 17:51 | 51.47692 | -0.45468 | 92 ft | 16 kts | 174° |
| 2026-05-07 17:52 | 51.47594 | -0.45503 | 94 ft | 9 kts | 180° |
| 2026-05-07 17:52 | 51.47544 | -0.45502 | 94 ft | 6 kts | 211° |
| 2026-05-07 17:52 | 51.47516 | -0.45548 | 95 ft | 7 kts | 246° |
| 2026-05-07 17:52 | 51.47515 | -0.45659 | 95 ft | 14 kts | 288° |
| 2026-05-07 17:53 | 51.47518 | -0.45841 | 91 ft | 19 kts | 268° |
| 2026-05-07 17:53 | 51.47514 | -0.46062 | 94 ft | 19 kts | 272° |
| 2026-05-07 17:53 | 51.47516 | -0.46285 | 92 ft | 21 kts | 269° |
| 2026-05-07 17:53 | 51.47515 | -0.46512 | 95 ft | 20 kts | 269° |
| 2026-05-07 17:54 | 51.47506 | -0.46726 | 95 ft | 20 kts | 257° |
| 2026-05-07 17:54 | 51.47494 | -0.46947 | 93 ft | 19 kts | 268° |
| 2026-05-07 17:54 | 51.47492 | -0.47159 | 94 ft | 19 kts | 271° |
| 2026-05-07 17:54 | 51.47493 | -0.47383 | 92 ft | 20 kts | 268° |
| 2026-05-07 17:55 | 51.47491 | -0.47602 | 94 ft | 19 kts | 270° |
| 2026-05-07 17:55 | 51.47490 | -0.47826 | 92 ft | 21 kts | 271° |
| 2026-05-07 17:55 | 51.47490 | -0.48051 | 94 ft | 20 kts | 268° |
| 2026-05-07 17:55 | 51.47489 | -0.48278 | 93 ft | 21 kts | 269° |
| 2026-05-07 17:56 | 51.47480 | -0.48443 | 96 ft | 12 kts | 249° |
| 2026-05-07 17:56 | 51.47408 | -0.48475 | 91 ft | 13 kts | 179° |
| 2026-05-07 17:56 | 51.47401 | -0.48475 | 91 ft | 0 kts | 179° |
| 2026-05-07 17:57 | 51.47386 | -0.48475 | 90 ft | 5 kts | 180° |
| 2026-05-07 17:57 | 51.47298 | -0.48476 | 90 ft | 13 kts | 183° |
| 2026-05-07 17:57 | 51.47191 | -0.48476 | 91 ft | 18 kts | 180° |
| 2026-05-07 17:58 | 51.47086 | -0.48475 | 91 ft | 14 kts | 179° |
| 2026-05-07 17:58 | 51.46990 | -0.48471 | 95 ft | 14 kts | 179° |
| 2026-05-07 17:58 | 51.46900 | -0.48477 | 94 ft | 12 kts | 197° |
| 2026-05-07 17:58 | 51.46877 | -0.48588 | 93 ft | 12 kts | 269° |
| 2026-05-07 17:59 | 51.46875 | -0.48725 | 92 ft | 13 kts | 271° |
| 2026-05-07 17:59 | 51.46877 | -0.48840 | 91 ft | 6 kts | 274° |
| 2026-05-07 17:59 | 51.46890 | -0.48857 | 92 ft | 2 kts | 337° |
| 2026-05-07 17:59 | 51.46908 | -0.48858 | 92 ft | 2 kts | 358° |
| 2026-05-07 18:00 | 51.46919 | -0.48859 | 92 ft | 1 kts | 356° |
| 2026-05-07 18:00 | 51.46925 | -0.48859 | 96 ft | 0 kts | 356° |